Time;durP1;ratioP1;P1;durP2;ratioP2;P2;SDS_P1;SDS_P2;PMS_P1;PMS_P2;Temp;Humidity;BMP_temperature;BMP_pressure;BME280_temperature;BME280_humidity;BME280_pressure;Samples;Min_cycle;Max_cycle;Signal;HPM_P1;HPM_P2
2023/05/09 00:00:37;;;;;;;5.78;4.47;;;18.70;87.20;;;;;;6156717;23;20002;-77
2023/05/09 00:03:04;;;;;;;5.72;4.32;;;18.70;87.00;;;;;;6134511;23;20016;-76
2023/05/09 00:05:30;;;;;;;5.65;3.95;;;18.60;86.80;;;;;;6156673;23;20312;-76
2023/05/09 00:07:56;;;;;;;4.22;3.83;;;18.60;86.90;;;;;;6157378;23;20072;-76
2023/05/09 00:10:22;;;;;;;5.20;3.83;;;18.60;86.90;;;;;;6160006;23;20008;-76
2023/05/09 00:12:48;;;;;;;4.32;3.92;;;18.60;87.10;;;;;;6169952;23;20031;-76
2023/05/09 00:15:14;;;;;;;3.83;3.40;;;18.60;87.20;;;;;;6168642;23;20008;-76
2023/05/09 00:17:40;;;;;;;6.65;3.97;;;18.60;87.10;;;;;;6161861;23;20002;-76
2023/05/09 00:20:10;;;;;;;6.45;3.45;;;18.60;87.30;;;;;;6158653;23;20081;-75
2023/05/09 00:22:37;;;;;;;5.00;3.85;;;18.60;87.50;;;;;;6163442;23;20012;-76
2023/05/09 00:25:02;;;;;;;5.00;3.25;;;18.60;87.50;;;;;;6159537;23;20136;-76
2023/05/09 00:27:29;;;;;;;4.38;3.65;;;18.50;87.50;;;;;;6157617;23;20033;-76
2023/05/09 00:29:55;;;;;;;6.13;4.53;;;18.50;87.20;;;;;;6158113;23;20438;-75
2023/05/09 00:32:21;;;;;;;4.30;3.67;;;18.50;87.10;;;;;;6131757;23;20625;-75
2023/05/09 00:34:46;;;;;;;4.72;4.07;;;18.50;87.30;;;;;;6158193;23;20005;-75
2023/05/09 00:37:12;;;;;;;3.60;3.30;;;18.40;87.20;;;;;;6154264;23;20036;-76
2023/05/09 00:39:38;;;;;;;3.40;3.10;;;18.40;87.30;;;;;;6157949;23;20017;-76
2023/05/09 00:42:03;;;;;;;7.28;4.25;;;18.40;87.30;;;;;;6158472;23;20001;-76
2023/05/09 00:44:29;;;;;;;4.90;3.58;;;18.40;87.40;;;;;;6158275;23;20081;-76
2023/05/09 00:46:55;;;;;;;3.80;3.40;;;18.40;87.30;;;;;;6156855;23;20013;-76
2023/05/09 00:49:21;;;;;;;5.55;3.95;;;18.40;87.40;;;;;;6157191;23;20482;-75
2023/05/09 00:51:46;;;;;;;4.50;4.05;;;18.40;87.20;;;;;;6157162;23;20001;-76
2023/05/09 00:54:12;;;;;;;3.92;3.45;;;18.40;87.00;;;;;;6156849;23;20002;-76
2023/05/09 00:56:38;;;;;;;3.90;3.15;;;18.30;87.00;;;;;;6155646;23;20059;-77
2023/05/09 00:59:05;;;;;;;4.80;3.95;;;18.40;87.10;;;;;;6157493;23;20010;-76
2023/05/09 01:01:31;;;;;;;4.43;3.60;;;18.40;87.10;;;;;;6157180;23;20005;-75
2023/05/09 01:03:57;;;;;;;5.18;4.15;;;18.40;87.10;;;;;;6157931;23;20028;-76
2023/05/09 01:06:43;;;;;;;5.00;3.55;;;18.40;87.00;;;;;;6156680;23;20443;-76
2023/05/09 01:09:15;;;;;;;4.38;3.90;;;18.30;86.80;;;;;;6158605;23;19997;-76
2023/05/09 01:11:57;;;;;;;4.43;3.88;;;18.40;87.00;;;;;;6159084;23;20002;-76
2023/05/09 01:14:32;;;;;;;4.68;3.95;;;18.40;86.90;;;;;;6158678;23;20012;-75
2023/05/09 01:17:07;;;;;;;4.65;3.72;;;18.40;87.00;;;;;;6158610;23;20408;-76
2023/05/09 01:19:47;;;;;;;3.80;3.38;;;18.30;86.70;;;;;;6158295;23;20167;-76
2023/05/09 01:22:15;;;;;;;4.65;3.53;;;18.40;86.70;;;;;;6158608;23;20012;-75
2023/05/09 01:24:53;;;;;;;3.78;3.25;;;18.40;86.60;;;;;;6158358;23;20416;-75
2023/05/09 01:27:49;;;;;;;5.43;3.78;;;18.40;86.30;;;;;;6157350;23;20004;-75
2023/05/09 01:30:16;;;;;;;4.80;3.88;;;18.30;86.30;;;;;;6157025;23;20001;-75
2023/05/09 01:32:48;;;;;;;4.95;3.90;;;18.30;86.20;;;;;;6156792;23;20029;-75
2023/05/09 01:35:16;;;;;;;4.60;3.97;;;18.30;86.40;;;;;;6157369;23;20006;-75
2023/05/09 01:37:43;;;;;;;3.92;3.40;;;18.30;86.30;;;;;;6157099;23;20036;-75
2023/05/09 01:40:20;;;;;;;5.30;4.75;;;18.30;86.20;;;;;;6156798;23;20016;-75
2023/05/09 01:43:01;;;;;;;5.63;3.67;;;18.30;86.30;;;;;;6156526;23;20008;-75
2023/05/09 01:45:28;;;;;;;3.80;3.35;;;18.30;86.00;;;;;;6129274;23;20333;-75
2023/05/09 01:47:56;;;;;;;4.28;3.47;;;18.30;85.90;;;;;;6157239;23;20056;-75
2023/05/09 01:50:23;;;;;;;5.18;3.72;;;18.30;85.90;;;;;;6157488;23;20385;-75
2023/05/09 01:52:52;;;;;;;4.68;4.00;;;18.30;86.20;;;;;;6156676;23;20005;-75
2023/05/09 01:55:20;;;;;;;4.30;3.13;;;18.30;85.60;;;;;;6156155;23;20061;-75
2023/05/09 01:57:47;;;;;;;3.53;3.05;;;18.30;85.50;;;;;;6156198;23;20320;-75
2023/05/09 02:00:14;;;;;;;5.35;3.80;;;18.30;85.70;;;;;;6156129;23;20036;-75
2023/05/09 02:02:40;;;;;;;4.50;3.67;;;18.20;85.80;;;;;;6156061;23;20052;-75
2023/05/09 02:05:09;;;;;;;4.60;4.03;;;18.20;85.80;;;;;;6155831;23;20002;-75
2023/05/09 02:07:36;;;;;;;3.90;3.50;;;18.10;85.90;;;;;;6156353;23;20080;-75
2023/05/09 02:10:03;;;;;;;4.00;3.53;;;18.10;86.00;;;;;;6156409;23;20004;-75
2023/05/09 02:12:29;;;;;;;4.82;3.78;;;18.10;86.20;;;;;;6130229;23;20016;-75
2023/05/09 02:14:55;;;;;;;4.30;3.38;;;18.10;86.30;;;;;;6156040;23;20045;-75
2023/05/09 02:17:21;;;;;;;4.22;3.83;;;18.10;86.30;;;;;;6156747;23;20012;-76
2023/05/09 02:19:46;;;;;;;3.70;3.20;;;18.10;86.30;;;;;;6156443;23;20005;-75
2023/05/09 02:22:13;;;;;;;5.35;3.90;;;18.00;86.20;;;;;;6156887;23;20006;-75
2023/05/09 02:24:39;;;;;;;4.10;3.70;;;18.00;86.50;;;;;;6156669;23;20004;-76
2023/05/09 02:27:07;;;;;;;5.20;3.65;;;18.00;86.40;;;;;;6156823;23;20002;-75
2023/05/09 02:29:44;;;;;;;4.50;3.80;;;17.90;86.50;;;;;;6157092;23;20064;-76
2023/05/09 02:32:15;;;;;;;3.75;3.35;;;17.90;86.60;;;;;;6156451;23;20409;-75
2023/05/09 02:34:41;;;;;;;8.15;3.88;;;17.90;86.70;;;;;;6155918;23;20005;-76
2023/05/09 02:37:09;;;;;;;6.00;3.95;;;17.90;86.70;;;;;;6130175;23;20324;-76
2023/05/09 02:39:35;;;;;;;5.03;4.00;;;17.90;86.70;;;;;;6156199;23;20013;-75
2023/05/09 02:42:10;;;;;;;4.25;3.85;;;17.90;86.60;;;;;;6155656;23;20085;-75
2023/05/09 02:44:37;;;;;;;4.20;3.80;;;18.00;86.60;;;;;;6155695;23;20593;-75
2023/05/09 02:47:05;;;;;;;5.03;3.88;;;18.00;86.60;;;;;;6155538;23;20041;-76
2023/05/09 02:49:32;;;;;;;5.32;4.28;;;18.00;86.60;;;;;;6155403;23;20005;-75
2023/05/09 02:51:57;;;;;;;4.13;3.65;;;18.00;86.50;;;;;;6155308;23;20009;-75
2023/05/09 02:54:23;;;;;;;5.80;4.32;;;18.00;86.50;;;;;;6155229;23;20436;-75
2023/05/09 02:56:49;;;;;;;4.00;3.60;;;18.00;86.70;;;;;;6155510;23;20033;-76
2023/05/09 02:59:16;;;;;;;7.10;4.10;;;18.00;86.60;;;;;;6155409;23;20092;-76
2023/05/09 03:01:42;;;;;;;5.03;3.78;;;18.00;86.50;;;;;;6154809;23;20060;-75
2023/05/09 03:04:07;;;;;;;4.22;3.83;;;18.00;86.50;;;;;;6154657;23;20356;-75
2023/05/09 03:06:33;;;;;;;4.07;3.60;;;18.00;86.60;;;;;;6155067;23;20178;-75
2023/05/09 03:08:59;;;;;;;4.25;3.72;;;17.90;86.60;;;;;;6154822;23;20336;-75
2023/05/09 03:11:25;;;;;;;3.85;3.40;;;17.90;86.70;;;;;;6128859;23;20416;-75
2023/05/09 03:13:50;;;;;;;4.82;3.88;;;17.90;86.70;;;;;;6129581;23;20008;-76
2023/05/09 03:16:17;;;;;;;4.57;4.18;;;17.80;86.80;;;;;;6129241;23;20085;-75
2023/05/09 03:18:43;;;;;;;6.18;4.30;;;17.80;86.80;;;;;;6155864;23;20073;-75
2023/05/09 03:21:09;;;;;;;3.97;3.58;;;17.80;86.80;;;;;;6155373;23;20035;-76
2023/05/09 03:23:34;;;;;;;4.47;3.50;;;17.80;86.80;;;;;;6155092;23;20061;-75
2023/05/09 03:26:00;;;;;;;3.92;3.47;;;17.80;86.80;;;;;;6154662;23;20479;-75
2023/05/09 03:28:27;;;;;;;3.88;3.47;;;17.80;86.70;;;;;;6155261;23;20008;-75
2023/05/09 03:30:53;;;;;;;5.05;4.20;;;17.80;86.60;;;;;;6128876;23;20100;-76
2023/05/09 03:33:19;;;;;;;4.30;3.83;;;17.90;86.60;;;;;;6155006;23;20408;-75
2023/05/09 03:35:45;;;;;;;4.00;3.53;;;17.90;86.50;;;;;;6154253;23;20048;-75
2023/05/09 03:38:11;;;;;;;3.90;3.50;;;17.90;86.50;;;;;;6154564;23;20014;-75
2023/05/09 03:40:37;;;;;;;5.07;4.00;;;17.90;86.50;;;;;;6154671;23;20115;-75
2023/05/09 03:43:02;;;;;;;3.67;3.30;;;17.90;86.40;;;;;;6155169;23;20037;-75
2023/05/09 03:45:28;;;;;;;3.85;3.47;;;17.80;86.30;;;;;;6155276;23;20002;-76
2023/05/09 03:47:54;;;;;;;5.25;3.83;;;17.80;86.30;;;;;;6155832;23;19998;-75
2023/05/09 03:50:19;;;;;;;3.47;3.17;;;17.80;86.50;;;;;;6154952;23;20001;-75
2023/05/09 03:52:45;;;;;;;5.82;3.70;;;17.80;86.60;;;;;;6154812;23;20005;-75
2023/05/09 03:55:10;;;;;;;6.10;3.55;;;17.80;86.60;;;;;;6154715;23;20415;-75
2023/05/09 03:57:36;;;;;;;6.05;3.85;;;17.80;86.70;;;;;;6157326;23;20006;-76
2023/05/09 04:00:06;;;;;;;4.78;4.25;;;17.80;86.60;;;;;;6154801;23;20428;-75
2023/05/09 04:02:33;;;;;;;4.43;3.60;;;17.80;86.60;;;;;;6155298;23;20006;-75
2023/05/09 04:04:59;;;;;;;4.93;3.25;;;17.80;86.60;;;;;;6154177;23;20013;-75
2023/05/09 04:07:27;;;;;;;4.82;3.72;;;17.80;86.50;;;;;;6154425;23;20005;-75
2023/05/09 04:09:54;;;;;;;4.32;3.80;;;17.80;86.60;;;;;;6154924;23;20002;-75
2023/05/09 04:12:20;;;;;;;4.43;3.58;;;17.70;86.70;;;;;;6155114;23;20799;-75
2023/05/09 04:14:46;;;;;;;3.92;3.53;;;17.70;86.60;;;;;;6153623;23;20041;-75
2023/05/09 04:17:11;;;;;;;5.00;4.43;;;17.70;86.70;;;;;;6155016;23;20025;-76
2023/05/09 04:19:37;;;;;;;5.97;3.70;;;17.70;86.80;;;;;;6155397;23;20362;-75
2023/05/09 04:22:03;;;;;;;4.25;3.80;;;17.70;86.50;;;;;;6154667;23;20109;-75
2023/05/09 04:24:28;;;;;;;5.20;3.85;;;17.70;86.50;;;;;;6153505;23;20001;-75
2023/05/09 04:26:54;;;;;;;3.75;3.33;;;17.80;86.60;;;;;;6154576;23;20008;-75
2023/05/09 04:29:20;;;;;;;4.18;3.78;;;17.70;86.50;;;;;;6154692;23;20463;-79
2023/05/09 04:31:46;;;;;;;4.47;3.72;;;17.70;86.60;;;;;;6155370;23;20009;-78
2023/05/09 04:34:12;;;;;;;4.40;3.88;;;17.80;86.60;;;;;;6153814;23;20073;-78
2023/05/09 04:36:37;;;;;;;6.55;4.15;;;17.80;86.70;;;;;;6155269;23;20006;-79
2023/05/09 04:39:07;;;;;;;4.90;4.32;;;17.90;86.80;;;;;;6154352;23;20027;-79
2023/05/09 04:41:32;;;;;;;4.65;3.95;;;17.90;86.40;;;;;;6155270;23;20064;-79
2023/05/09 04:43:58;;;;;;;4.88;3.70;;;18.00;86.60;;;;;;6154976;23;20031;-79
2023/05/09 04:46:24;;;;;;;5.30;4.57;;;18.00;86.30;;;;;;6156324;23;20324;-79
2023/05/09 04:48:50;;;;;;;5.85;4.00;;;18.10;85.90;;;;;;6156147;23;20002;-79
2023/05/09 04:51:15;;;;;;;4.07;3.28;;;18.00;85.40;;;;;;6156213;23;20002;-79
2023/05/09 04:53:41;;;;;;;6.10;4.00;;;18.00;85.00;;;;;;6155779;23;20040;-76
2023/05/09 04:56:07;;;;;;;5.30;3.53;;;18.10;84.90;;;;;;6155659;23;19997;-77
2023/05/09 04:58:37;;;;;;;6.07;3.70;;;18.10;85.20;;;;;;6156402;23;20320;-76
2023/05/09 05:01:04;;;;;;;4.75;3.55;;;18.10;84.80;;;;;;6155739;23;20001;-78
2023/05/09 05:03:29;;;;;;;5.05;4.28;;;18.10;84.80;;;;;;6155947;23;20092;-77
2023/05/09 05:05:55;;;;;;;4.72;3.83;;;18.10;85.00;;;;;;6156375;23;20431;-77
2023/05/09 05:08:21;;;;;;;5.40;3.47;;;18.10;84.70;;;;;;6155944;23;20651;-76
2023/05/09 05:10:47;;;;;;;3.90;3.50;;;18.10;84.70;;;;;;6156243;23;19997;-77
2023/05/09 05:13:13;;;;;;;4.15;3.75;;;18.20;84.70;;;;;;6155607;23;20002;-81
2023/05/09 05:15:40;;;;;;;3.97;3.40;;;18.30;84.90;;;;;;6156224;23;20002;-80
2023/05/09 05:18:05;;;;;;;4.28;3.42;;;18.30;84.50;;;;;;6155989;23;20417;-79
2023/05/09 05:20:31;;;;;;;4.68;3.80;;;18.30;84.40;;;;;;6156619;23;20001;-79
2023/05/09 05:22:57;;;;;;;5.28;3.65;;;18.30;84.50;;;;;;6154944;23;20006;-79
2023/05/09 05:25:24;;;;;;;3.80;3.40;;;18.40;84.60;;;;;;6153996;23;20013;-79
2023/05/09 05:27:50;;;;;;;5.00;3.78;;;18.40;84.10;;;;;;6156724;23;20005;-80
2023/05/09 05:30:15;;;;;;;3.88;3.40;;;18.40;83.80;;;;;;6156575;23;20002;-79
2023/05/09 05:32:42;;;;;;;16.08;3.80;;;18.50;83.80;;;;;;6156672;23;20009;-79
2023/05/09 05:35:10;;;;;;;4.18;3.42;;;18.50;83.60;;;;;;6155924;23;20002;-79
2023/05/09 05:37:37;;;;;;;4.97;3.72;;;18.50;83.30;;;;;;6155869;23;20010;-74
2023/05/09 05:40:04;;;;;;;6.93;4.00;;;18.60;83.30;;;;;;6156171;23;20005;-75
2023/05/09 05:42:30;;;;;;;4.88;4.22;;;18.60;84.00;;;;;;6130279;23;20056;-75
2023/05/09 05:44:56;;;;;;;4.40;3.55;;;18.60;83.20;;;;;;6156119;23;20002;-75
2023/05/09 05:47:22;;;;;;;4.70;4.05;;;18.70;83.00;;;;;;6156340;23;20069;-75
2023/05/09 05:49:47;;;;;;;5.32;3.28;;;18.70;82.20;;;;;;6155937;23;20048;-75
2023/05/09 05:52:13;;;;;;;4.85;3.70;;;18.80;82.30;;;;;;6154757;23;20013;-75
2023/05/09 05:54:41;;;;;;;5.38;3.72;;;18.80;82.50;;;;;;6156217;23;20920;-76
2023/05/09 05:57:07;;;;;;;7.40;4.95;;;18.90;82.10;;;;;;6156239;23;20447;-75
2023/05/09 05:59:32;;;;;;;4.95;4.00;;;18.90;80.70;;;;;;6155645;23;20005;-75
2023/05/09 06:01:58;;;;;;;4.57;4.07;;;18.90;80.40;;;;;;6154952;23;20080;-75
2023/05/09 06:04:23;;;;;;;5.10;3.70;;;18.90;80.80;;;;;;6155239;23;20048;-75
2023/05/09 06:06:50;;;;;;;5.05;3.85;;;19.00;81.00;;;;;;6155778;23;20056;-75
2023/05/09 06:09:15;;;;;;;4.68;4.03;;;19.00;80.50;;;;;;6155732;23;20025;-75
2023/05/09 06:11:41;;;;;;;4.00;3.47;;;19.00;80.50;;;;;;6156007;23;20001;-76
2023/05/09 06:14:06;;;;;;;7.38;4.93;;;19.10;80.10;;;;;;6156113;23;20002;-75
2023/05/09 06:16:32;;;;;;;3.80;3.20;;;19.10;78.70;;;;;;6129937;23;20017;-75
2023/05/09 06:18:58;;;;;;;4.85;3.80;;;19.20;79.10;;;;;;6157117;23;20001;-75
2023/05/09 06:21:25;;;;;;;6.35;3.67;;;19.30;78.60;;;;;;6155810;23;20009;-78
2023/05/09 06:23:50;;;;;;;4.20;3.28;;;19.30;77.50;;;;;;6155544;23;20008;-79
2023/05/09 06:26:16;;;;;;;5.53;4.35;;;19.30;78.00;;;;;;6155879;23;20076;-75
2023/05/09 06:28:42;;;;;;;4.28;3.30;;;19.30;75.80;;;;;;6156884;23;19998;-75
2023/05/09 06:31:07;;;;;;;4.22;3.75;;;19.30;77.10;;;;;;6158489;23;20073;-75
2023/05/09 06:33:33;;;;;;;3.47;2.78;;;19.40;76.40;;;;;;6157259;23;20340;-75
2023/05/09 06:35:59;;;;;;;3.92;2.63;;;19.50;76.60;;;;;;6156889;23;20056;-75
2023/05/09 06:38:25;;;;;;;3.33;2.90;;;19.50;76.10;;;;;;6156043;23;20024;-75
2023/05/09 06:40:50;;;;;;;3.67;2.92;;;19.60;75.60;;;;;;6156141;23;20006;-75
2023/05/09 06:43:16;;;;;;;5.75;3.20;;;19.60;75.60;;;;;;6155839;23;20357;-75
2023/05/09 06:45:41;;;;;;;4.38;3.42;;;19.60;75.40;;;;;;6129648;23;20459;-76
2023/05/09 06:48:07;;;;;;;3.53;2.97;;;19.60;74.50;;;;;;6155925;23;19997;-75
2023/05/09 06:50:33;;;;;;;3.78;3.38;;;19.70;75.20;;;;;;6156311;23;20005;-76
2023/05/09 06:52:58;;;;;;;8.65;3.08;;;19.60;74.60;;;;;;6159633;23;20001;-75
2023/05/09 06:55:24;;;;;;;3.50;2.97;;;19.70;74.30;;;;;;6157049;23;20168;-76
2023/05/09 06:57:50;;;;;;;4.30;3.20;;;19.70;74.90;;;;;;6156438;23;20080;-78
2023/05/09 07:00:16;;;;;;;3.45;3.13;;;19.70;74.20;;;;;;6155026;23;20080;-75
2023/05/09 07:02:42;;;;;;;3.97;3.45;;;19.80;74.40;;;;;;6133416;23;20013;-76
2023/05/09 07:05:08;;;;;;;3.40;2.75;;;19.80;74.30;;;;;;6160200;23;20013;-75
2023/05/09 07:07:35;;;;;;;5.30;2.83;;;19.90;74.30;;;;;;6132320;23;20001;-75
2023/05/09 07:10:02;;;;;;;4.25;3.15;;;19.90;74.20;;;;;;6157817;23;19998;-76
2023/05/09 07:12:30;;;;;;;3.38;3.08;;;19.90;73.90;;;;;;6155316;23;20039;-76
2023/05/09 07:14:56;;;;;;;4.05;3.22;;;19.90;74.30;;;;;;6155892;23;20071;-76
2023/05/09 07:17:23;;;;;;;3.53;2.75;;;19.90;74.10;;;;;;6157508;23;20054;-76
2023/05/09 07:19:49;;;;;;;5.65;4.13;;;19.90;74.40;;;;;;6132548;23;20436;-76
2023/05/09 07:22:15;;;;;;;5.55;3.65;;;20.00;73.60;;;;;;6158168;23;20006;-76
2023/05/09 07:24:40;;;;;;;3.53;2.90;;;20.00;73.70;;;;;;6163870;23;19997;-76
2023/05/09 07:27:06;;;;;;;5.63;3.38;;;20.00;74.00;;;;;;6157444;23;20033;-76
2023/05/09 07:29:32;;;;;;;3.38;3.08;;;20.00;74.00;;;;;;6156293;23;20032;-76
2023/05/09 07:31:57;;;;;;;3.38;2.78;;;20.00;74.70;;;;;;6131402;23;20006;-75
2023/05/09 07:34:24;;;;;;;4.05;3.25;;;20.10;74.30;;;;;;6154893;23;20009;-75
2023/05/09 07:36:50;;;;;;;3.65;3.08;;;20.10;74.30;;;;;;6155909;23;20043;-73
2023/05/09 07:39:15;;;;;;;3.88;3.05;;;20.10;74.60;;;;;;6157945;23;20017;-74
2023/05/09 07:41:41;;;;;;;8.05;4.65;;;20.10;74.80;;;;;;6159151;23;20010;-74
2023/05/09 07:44:08;;;;;;;5.35;3.95;;;20.10;74.50;;;;;;6161967;23;19997;-74
2023/05/09 07:46:36;;;;;;;4.53;3.28;;;20.10;74.90;;;;;;6158597;23;20518;-74
2023/05/09 07:49:02;;;;;;;4.35;3.53;;;20.10;75.40;;;;;;6159848;23;20001;-74
2023/05/09 07:51:28;;;;;;;4.20;3.10;;;20.20;75.10;;;;;;6159092;23;20006;-74
2023/05/09 07:53:55;;;;;;;3.97;3.05;;;20.30;75.40;;;;;;6157097;23;20368;-74
2023/05/09 07:56:21;;;;;;;7.22;3.40;;;20.40;75.20;;;;;;6155959;23;20002;-73
2023/05/09 07:58:48;;;;;;;3.50;3.20;;;20.50;75.30;;;;;;6155796;23;20005;-74
2023/05/09 08:01:14;;;;;;;3.90;3.50;;;20.60;74.90;;;;;;6156183;23;20049;-74
2023/05/09 08:03:40;;;;;;;4.57;4.18;;;20.60;74.00;;;;;;6156439;23;20009;-75
2023/05/09 08:06:06;;;;;;;3.83;3.38;;;20.70;73.30;;;;;;6156102;23;20072;-74
2023/05/09 08:08:31;;;;;;;4.30;3.28;;;20.70;73.90;;;;;;6155727;23;19997;-76
2023/05/09 08:10:57;;;;;;;4.38;3.78;;;20.80;74.00;;;;;;6156595;23;19997;-75
2023/05/09 08:13:24;;;;;;;4.85;3.95;;;20.80;73.80;;;;;;6155994;23;20068;-73
2023/05/09 08:15:49;;;;;;;3.33;2.67;;;20.90;73.80;;;;;;6129439;23;20006;-75
2023/05/09 08:18:16;;;;;;;5.78;4.50;;;20.90;73.80;;;;;;6155884;23;20061;-74
2023/05/09 08:20:42;;;;;;;3.83;3.42;;;21.00;73.40;;;;;;6157429;23;20010;-74
2023/05/09 08:23:08;;;;;;;10.05;4.65;;;21.00;73.80;;;;;;6156796;23;20033;-76
2023/05/09 08:25:34;;;;;;;5.00;3.47;;;21.10;73.90;;;;;;6156620;23;19997;-76
2023/05/09 08:27:59;;;;;;;7.43;3.63;;;21.20;74.30;;;;;;6156420;23;20024;-76
2023/05/09 08:30:28;;;;;;;3.78;3.08;;;21.30;73.90;;;;;;6156567;23;20006;-76
2023/05/09 08:32:56;;;;;;;5.47;4.00;;;21.40;74.00;;;;;;6128338;23;20014;-74
2023/05/09 08:35:22;;;;;;;4.43;3.75;;;21.50;73.80;;;;;;6156593;23;20006;-75
2023/05/09 08:37:48;;;;;;;4.53;3.83;;;21.50;73.40;;;;;;6156253;23;20064;-75
2023/05/09 08:40:14;;;;;;;4.65;3.92;;;21.60;73.70;;;;;;6156248;23;20006;-75
2023/05/09 08:42:44;;;;;;;4.35;3.35;;;21.60;73.40;;;;;;6156449;23;20028;-75
2023/05/09 08:45:13;;;;;;;4.47;3.67;;;21.60;73.60;;;;;;6156332;23;20032;-76
2023/05/09 08:47:40;;;;;;;4.22;3.17;;;21.70;74.00;;;;;;6156623;23;19998;-76
2023/05/09 08:50:07;;;;;;;5.13;3.97;;;21.80;73.90;;;;;;6130350;23;20005;-76
2023/05/09 08:52:33;;;;;;;4.60;4.20;;;21.80;73.60;;;;;;6130507;23;20323;-76
2023/05/09 08:55:06;;;;;;;3.70;3.10;;;21.90;73.60;;;;;;6156873;23;20029;-76
2023/05/09 08:57:35;;;;;;;4.78;3.85;;;22.00;73.70;;;;;;6131144;23;20013;-78
2023/05/09 09:00:04;;;;;;;6.57;3.60;;;22.00;73.30;;;;;;6156623;23;20009;-77
2023/05/09 09:02:31;;;;;;;3.85;2.97;;;22.10;72.30;;;;;;6156103;23;20307;-77
2023/05/09 09:04:57;;;;;;;4.55;2.92;;;22.20;72.20;;;;;;6155618;23;20001;-77
2023/05/09 09:07:25;;;;;;;3.72;2.88;;;22.20;72.10;;;;;;6155974;23;20405;-77
2023/05/09 09:09:53;;;;;;;3.33;3.00;;;22.30;72.20;;;;;;6128084;23;20005;-79
2023/05/09 09:12:22;;;;;;;3.92;2.75;;;22.30;71.80;;;;;;6155799;23;20032;-79
2023/05/09 09:14:51;;;;;;;5.30;3.50;;;22.40;71.90;;;;;;6130141;23;20317;-81
2023/05/09 09:17:20;;;;;;;3.33;2.80;;;22.40;70.80;;;;;;6155784;23;20475;-79
2023/05/09 09:19:48;;;;;;;3.58;2.55;;;22.50;70.80;;;;;;6153288;23;20224;-79
2023/05/09 09:22:17;;;;;;;2.50;2.30;;;22.60;71.00;;;;;;6153538;23;20007;-78
2023/05/09 09:24:43;;;;;;;2.80;2.50;;;22.70;71.40;;;;;;6154456;23;20344;-78
2023/05/09 09:27:09;;;;;;;2.63;2.35;;;22.80;70.70;;;;;;6156035;23;19998;-78
2023/05/09 09:29:35;;;;;;;4.25;2.75;;;22.80;70.30;;;;;;6155562;23;20059;-77
2023/05/09 09:32:02;;;;;;;3.90;2.50;;;22.90;69.70;;;;;;6155790;23;20101;-79
2023/05/09 09:34:28;;;;;;;3.88;3.33;;;23.00;70.20;;;;;;6155710;23;20005;-78
2023/05/09 09:36:54;;;;;;;2.88;2.58;;;23.10;68.40;;;;;;6156535;23;20005;-78
2023/05/09 09:39:20;;;;;;;5.05;2.47;;;23.10;68.60;;;;;;6152010;23;20068;-78
2023/05/09 09:41:46;;;;;;;2.97;2.65;;;23.10;68.90;;;;;;6155400;23;20080;-77
2023/05/09 09:44:17;;;;;;;3.70;2.78;;;23.20;68.90;;;;;;6155711;23;20058;-75
2023/05/09 09:46:49;;;;;;;3.35;2.13;;;23.30;69.00;;;;;;6155506;23;20491;-79
2023/05/09 09:49:16;;;;;;;2.72;2.42;;;23.30;68.80;;;;;;6155817;23;20032;-79
2023/05/09 09:51:43;;;;;;;3.13;2.17;;;23.40;68.60;;;;;;6155461;23;20013;-80
2023/05/09 09:54:14;;;;;;;2.40;1.98;;;23.50;68.80;;;;;;6155266;23;20010;-79
2023/05/09 09:56:47;;;;;;;3.00;2.65;;;23.60;68.20;;;;;;6155812;23;20032;-78
2023/05/09 09:59:15;;;;;;;3.22;2.58;;;23.70;68.50;;;;;;6130096;23;20011;-79
2023/05/09 10:02:00;;;;;;;2.40;2.20;;;23.80;66.70;;;;;;6155864;23;20012;-79
2023/05/09 10:04:28;;;;;;;2.50;2.20;;;23.90;66.90;;;;;;6154763;23;20001;-83
2023/05/09 10:06:59;;;;;;;2.10;1.77;;;24.00;67.30;;;;;;6155174;23;20023;-80
2023/05/09 10:09:26;;;;;;;4.07;2.38;;;24.10;67.50;;;;;;6156204;23;20061;-81
2023/05/09 10:11:54;;;;;;;2.50;2.20;;;24.20;65.60;;;;;;6156172;23;20001;-82
2023/05/09 10:14:23;;;;;;;3.53;2.47;;;24.30;66.50;;;;;;6156709;23;20029;-83
2023/05/09 10:16:50;;;;;;;3.45;2.70;;;24.40;64.40;;;;;;6156753;23;20006;-82
2023/05/09 10:19:20;;;;;;;2.80;2.03;;;24.50;65.30;;;;;;6130077;23;20092;-83
2023/05/09 10:21:57;;;;;;;3.38;2.60;;;24.60;64.70;;;;;;6155872;23;20009;-83
2023/05/09 10:24:34;;;;;;;3.03;2.40;;;24.60;63.60;;;;;;6156436;23;20028;-83
2023/05/09 10:27:04;;;;;;;2.70;2.17;;;24.70;63.80;;;;;;6156069;23;19997;-82
2023/05/09 10:29:36;;;;;;;2.63;2.03;;;24.70;62.70;;;;;;6152356;23;20009;-80
2023/05/09 10:32:11;;;;;;;4.20;2.45;;;24.70;63.10;;;;;;6146382;23;20118;-80
2023/05/09 10:34:39;;;;;;;2.95;1.90;;;24.80;63.50;;;;;;6149460;23;20428;-80
2023/05/09 10:37:07;;;;;;;1.90;1.67;;;24.90;63.50;;;;;;6149523;23;20033;-83
2023/05/09 10:39:34;;;;;;;2.10;1.90;;;24.90;63.00;;;;;;6147565;23;20068;-83
2023/05/09 10:42:00;;;;;;;3.10;2.38;;;24.90;62.80;;;;;;6147664;23;20014;-80
2023/05/09 10:44:26;;;;;;;2.65;2.08;;;25.00;62.50;;;;;;6149387;23;20440;-81
2023/05/09 10:46:52;;;;;;;2.72;2.35;;;25.10;62.90;;;;;;6148681;23;20055;-80
2023/05/09 10:49:19;;;;;;;3.67;2.50;;;25.20;61.60;;;;;;6143046;23;20373;-80
2023/05/09 10:51:57;;;;;;;3.83;3.15;;;25.30;62.10;;;;;;6147231;23;20148;-80
2023/05/09 10:54:28;;;;;;;2.45;1.98;;;25.30;59.60;;;;;;6148550;23;20005;-80
2023/05/09 10:56:54;;;;;;;3.30;2.22;;;25.30;61.00;;;;;;6148789;23;20107;-80
2023/05/09 10:59:50;;;;;;;5.30;1.80;;;25.40;60.80;;;;;;6149157;23;20013;-80
2023/05/09 11:02:19;;;;;;;2.30;1.90;;;25.50;61.40;;;;;;6097426;23;20014;-79
2023/05/09 11:04:45;;;;;;;2.97;2.30;;;25.60;61.40;;;;;;6122656;23;20004;-78
2023/05/09 11:07:25;;;;;;;3.75;2.40;;;25.70;59.70;;;;;;6147538;23;20005;-79
2023/05/09 11:10:06;;;;;;;4.47;2.10;;;25.70;58.90;;;;;;6148429;23;20002;-79
2023/05/09 11:12:32;;;;;;;4.20;1.90;;;25.80;59.90;;;;;;6124328;23;20063;-79
2023/05/09 11:15:05;;;;;;;4.45;2.95;;;25.90;60.10;;;;;;6154874;23;20027;-79
2023/05/09 11:17:31;;;;;;;2.75;1.92;;;26.00;58.10;;;;;;6153852;23;20348;-79
2023/05/09 11:20:04;;;;;;;2.40;2.15;;;26.10;59.40;;;;;;6154272;23;20029;-79
2023/05/09 11:22:37;;;;;;;2.70;1.80;;;26.20;59.30;;;;;;6154267;23;20398;-80
2023/05/09 11:25:11;;;;;;;2.78;1.88;;;26.40;58.80;;;;;;6154468;23;19998;-80
2023/05/09 11:27:48;;;;;;;2.75;2.03;;;26.50;58.10;;;;;;6153158;23;19997;-79
2023/05/09 11:30:16;;;;;;;2.95;1.80;;;26.60;58.40;;;;;;6154919;23;20005;-80
2023/05/09 11:32:42;;;;;;;3.67;2.67;;;26.80;58.20;;;;;;6153854;23;20104;-81
2023/05/09 11:35:35;;;;;;;7.00;2.53;;;26.90;57.80;;;;;;6153449;23;20001;-82
2023/05/09 11:38:05;;;;;;;2.92;2.42;;;27.10;55.90;;;;;;6151354;23;20017;-82
2023/05/09 11:40:32;;;;;;;1.85;1.70;;;27.20;57.20;;;;;;6152959;23;20048;-81
2023/05/09 11:42:59;;;;;;;2.22;1.75;;;27.30;56.40;;;;;;6154084;23;20086;-80
2023/05/09 11:45:28;;;;;;;2.45;2.10;;;27.50;56.30;;;;;;6154313;23;20052;-81
2023/05/09 11:47:54;;;;;;;2.95;2.60;;;27.50;55.70;;;;;;6154149;23;19998;-81
2023/05/09 11:50:20;;;;;;;3.42;1.80;;;27.60;54.80;;;;;;6128457;23;20056;-81
2023/05/09 11:52:47;;;;;;;3.03;2.08;;;27.80;55.40;;;;;;6126486;23;20044;-80
2023/05/09 11:55:16;;;;;;;5.22;1.90;;;27.90;54.60;;;;;;6156023;23;20044;-79
2023/05/09 12:41:28;;;;;;;2.13;1.40;;;30.10;46.10;;;;;;6100094;23;20805;-78
2023/05/09 12:43:54;;;;;;;2.17;1.98;;;30.10;46.80;;;;;;6120857;23;20021;-79
2023/05/09 12:46:20;;;;;;;2.67;1.55;;;30.00;45.70;;;;;;6124015;23;20008;-77
2023/05/09 12:48:47;;;;;;;1.63;1.52;;;29.90;46.20;;;;;;6122896;23;20060;-78
2023/05/09 12:51:18;;;;;;;2.30;1.52;;;29.80;46.50;;;;;;6123132;23;20310;-80
2023/05/09 12:53:44;;;;;;;1.85;1.60;;;29.80;46.10;;;;;;6122984;23;20037;-80
2023/05/09 12:56:18;;;;;;;1.83;1.67;;;29.80;45.60;;;;;;6123920;23;20487;-83
2023/05/09 12:58:54;;;;;;;1.70;1.60;;;29.80;45.70;;;;;;6120446;23;20010;-79
2023/05/09 13:01:21;;;;;;;2.75;1.83;;;29.80;45.90;;;;;;6121968;23;20013;-79
2023/05/09 13:04:06;;;;;;;4.47;2.20;;;29.80;46.60;;;;;;6123566;23;20010;-80
2023/05/09 13:06:32;;;;;;;5.60;1.70;;;29.80;46.40;;;;;;6123810;23;19998;-80
2023/05/09 13:09:00;;;;;;;2.58;1.88;;;29.80;46.40;;;;;;6123577;23;20006;-79
2023/05/09 13:11:26;;;;;;;2.30;1.80;;;29.80;46.00;;;;;;6123807;23;20002;-81
2023/05/09 13:13:53;;;;;;;3.03;2.15;;;29.80;46.50;;;;;;6123468;23;20092;-81
2023/05/09 13:16:19;;;;;;;2.70;1.88;;;29.80;46.20;;;;;;6098840;23;20018;-82
2023/05/09 13:18:45;;;;;;;1.70;1.60;;;29.70;46.70;;;;;;6123732;23;20428;-82
2023/05/09 13:21:11;;;;;;;3.22;1.80;;;29.70;46.40;;;;;;6124484;23;20006;-81
2023/05/09 13:23:37;;;;;;;1.90;1.80;;;29.60;45.90;;;;;;6123362;23;20321;-80
2023/05/09 13:26:02;;;;;;;1.77;1.63;;;29.50;46.60;;;;;;6124669;23;20002;-80
2023/05/09 13:28:28;;;;;;;2.05;1.55;;;29.40;46.20;;;;;;6123982;23;20025;-80
2023/05/09 13:30:54;;;;;;;1.63;1.48;;;29.40;45.70;;;;;;6123430;23;20614;-80
2023/05/09 13:33:19;;;;;;;2.13;1.65;;;29.40;45.70;;;;;;6124077;23;20504;-81